sensor_id;sensor_type;location;lat;lon;timestamp;temperature;humidity
1778;DHT22;886;50.082;8.222;2023-02-11T00:01:20;3.00;99.90
1778;DHT22;886;50.082;8.222;2023-02-11T00:03:48;3.00;99.90
1778;DHT22;886;50.082;8.222;2023-02-11T00:06:16;2.90;99.90
1778;DHT22;886;50.082;8.222;2023-02-11T00:08:44;2.80;99.90
1778;DHT22;886;50.082;8.222;2023-02-11T00:11:13;2.90;99.90
1778;DHT22;886;50.082;8.222;2023-02-11T00:13:41;3.00;99.90
1778;DHT22;886;50.082;8.222;2023-02-11T00:16:14;3.10;99.90
1778;DHT22;886;50.082;8.222;2023-02-11T00:18:43;3.20;99.90
1778;DHT22;886;50.082;8.222;2023-02-11T00:21:12;3.10;99.90
1778;DHT22;886;50.082;8.222;2023-02-11T00:23:44;3.10;99.90
1778;DHT22;886;50.082;8.222;2023-02-11T00:26:12;3.10;99.90
1778;DHT22;886;50.082;8.222;2023-02-11T00:28:40;3.00;99.90
1778;DHT22;886;50.082;8.222;2023-02-11T00:31:07;3.00;99.90
1778;DHT22;886;50.082;8.222;2023-02-11T00:33:36;3.00;99.90
1778;DHT22;886;50.082;8.222;2023-02-11T00:36:09;2.90;99.90
1778;DHT22;886;50.082;8.222;2023-02-11T00:38:38;2.80;99.90
1778;DHT22;886;50.082;8.222;2023-02-11T00:41:05;2.90;99.90
1778;DHT22;886;50.082;8.222;2023-02-11T00:43:34;2.90;99.90
1778;DHT22;886;50.082;8.222;2023-02-11T00:46:01;3.00;99.90
1778;DHT22;886;50.082;8.222;2023-02-11T00:48:28;3.10;99.90
1778;DHT22;886;50.082;8.222;2023-02-11T00:50:58;2.90;99.90
1778;DHT22;886;50.082;8.222;2023-02-11T00:53:29;3.10;99.90
1778;DHT22;886;50.082;8.222;2023-02-11T00:55:56;2.90;99.90
1778;DHT22;886;50.082;8.222;2023-02-11T00:58:23;3.10;99.90
1778;DHT22;886;50.082;8.222;2023-02-11T01:00:50;3.20;99.90
1778;DHT22;886;50.082;8.222;2023-02-11T01:03:18;3.30;99.90
1778;DHT22;886;50.082;8.222;2023-02-11T01:05:45;3.20;99.90
1778;DHT22;886;50.082;8.222;2023-02-11T01:08:13;3.20;99.90
1778;DHT22;886;50.082;8.222;2023-02-11T01:10:40;3.20;99.90
1778;DHT22;886;50.082;8.222;2023-02-11T01:13:09;3.10;99.90
1778;DHT22;886;50.082;8.222;2023-02-11T01:15:36;3.20;99.90
1778;DHT22;886;50.082;8.222;2023-02-11T01:18:04;3.40;99.90
1778;DHT22;886;50.082;8.222;2023-02-11T01:20:35;3.40;99.90
1778;DHT22;886;50.082;8.222;2023-02-11T01:23:02;3.40;99.90
1778;DHT22;886;50.082;8.222;2023-02-11T01:25:30;3.50;99.90
1778;DHT22;886;50.082;8.222;2023-02-11T01:27:57;3.50;99.90
1778;DHT22;886;50.082;8.222;2023-02-11T01:30:25;3.50;99.90
1778;DHT22;886;50.082;8.222;2023-02-11T01:32:52;3.50;99.90
1778;DHT22;886;50.082;8.222;2023-02-11T01:35:21;3.50;99.90
1778;DHT22;886;50.082;8.222;2023-02-11T01:37:51;3.40;99.90
1778;DHT22;886;50.082;8.222;2023-02-11T01:40:21;3.40;99.90
1778;DHT22;886;50.082;8.222;2023-02-11T01:42:50;3.20;99.90
1778;DHT22;886;50.082;8.222;2023-02-11T01:48:35;3.30;99.90
1778;DHT22;886;50.082;8.222;2023-02-11T01:51:08;3.40;99.90
1778;DHT22;886;50.082;8.222;2023-02-11T01:53:45;3.40;99.90
1778;DHT22;886;50.082;8.222;2023-02-11T01:56:33;3.40;99.90
1778;DHT22;886;50.082;8.222;2023-02-11T01:59:29;3.50;99.90
1778;DHT22;886;50.082;8.222;2023-02-11T02:02:01;3.60;99.90
1778;DHT22;886;50.082;8.222;2023-02-11T02:04:38;3.60;99.90
1778;DHT22;886;50.082;8.222;2023-02-11T02:07:12;3.60;99.90
1778;DHT22;886;50.082;8.222;2023-02-11T02:09:44;3.60;99.90
1778;DHT22;886;50.082;8.222;2023-02-11T02:12:15;3.70;99.90
1778;DHT22;886;50.082;8.222;2023-02-11T02:14:43;3.70;99.90
1778;DHT22;886;50.082;8.222;2023-02-11T02:17:21;3.60;99.90
1778;DHT22;886;50.082;8.222;2023-02-11T02:24:15;3.50;99.90
1778;DHT22;886;50.082;8.222;2023-02-11T02:27:17;3.50;99.90
1778;DHT22;886;50.082;8.222;2023-02-11T02:33:30;3.50;99.90
1778;DHT22;886;50.082;8.222;2023-02-11T02:36:08;3.40;99.90
1778;DHT22;886;50.082;8.222;2023-02-11T02:38:43;3.40;99.90
1778;DHT22;886;50.082;8.222;2023-02-11T02:41:16;3.40;99.90
1778;DHT22;886;50.082;8.222;2023-02-11T02:43:47;3.40;99.90
1778;DHT22;886;50.082;8.222;2023-02-11T02:46:17;3.50;99.90
1778;DHT22;886;50.082;8.222;2023-02-11T02:48:48;3.40;99.90
1778;DHT22;886;50.082;8.222;2023-02-11T02:57:27;3.50;99.90
1778;DHT22;886;50.082;8.222;2023-02-11T03:00:10;3.40;99.90
1778;DHT22;886;50.082;8.222;2023-02-11T03:02:50;3.40;99.90
1778;DHT22;886;50.082;8.222;2023-02-11T03:05:30;3.40;99.90
1778;DHT22;886;50.082;8.222;2023-02-11T03:08:07;3.40;99.90
1778;DHT22;886;50.082;8.222;2023-02-11T03:10:39;3.30;99.90
1778;DHT22;886;50.082;8.222;2023-02-11T03:13:08;3.30;99.90
1778;DHT22;886;50.082;8.222;2023-02-11T03:15:39;3.30;99.90
1778;DHT22;886;50.082;8.222;2023-02-11T03:18:10;3.40;99.90
1778;DHT22;886;50.082;8.222;2023-02-11T03:20:43;3.40;99.90
1778;DHT22;886;50.082;8.222;2023-02-11T03:23:13;3.40;99.90
1778;DHT22;886;50.082;8.222;2023-02-11T03:25:48;3.40;99.90
1778;DHT22;886;50.082;8.222;2023-02-11T03:28:26;3.30;99.90
1778;DHT22;886;50.082;8.222;2023-02-11T03:31:03;3.30;99.90
1778;DHT22;886;50.082;8.222;2023-02-11T03:33:39;3.30;99.90
1778;DHT22;886;50.082;8.222;2023-02-11T03:36:13;3.40;99.90
1778;DHT22;886;50.082;8.222;2023-02-11T03:38:46;3.40;99.90
1778;DHT22;886;50.082;8.222;2023-02-11T03:41:17;3.50;99.90
1778;DHT22;886;50.082;8.222;2023-02-11T03:43:50;3.60;99.90
1778;DHT22;886;50.082;8.222;2023-02-11T03:46:22;3.60;99.90
1778;DHT22;886;50.082;8.222;2023-02-11T03:48:52;3.60;99.90
1778;DHT22;886;50.082;8.222;2023-02-11T03:51:25;3.50;99.90
1778;DHT22;886;50.082;8.222;2023-02-11T03:53:55;3.50;99.90
1778;DHT22;886;50.082;8.222;2023-02-11T03:56:29;3.50;99.90
1778;DHT22;886;50.082;8.222;2023-02-11T03:58:58;3.60;99.90
1778;DHT22;886;50.082;8.222;2023-02-11T04:01:25;3.60;99.90
1778;DHT22;886;50.082;8.222;2023-02-11T04:03:52;3.60;99.90
1778;DHT22;886;50.082;8.222;2023-02-11T04:06:20;3.70;99.90
1778;DHT22;886;50.082;8.222;2023-02-11T04:08:48;3.70;99.90
1778;DHT22;886;50.082;8.222;2023-02-11T04:11:18;3.70;99.90
1778;DHT22;886;50.082;8.222;2023-02-11T04:13:45;3.80;99.90
1778;DHT22;886;50.082;8.222;2023-02-11T04:16:12;3.80;99.90
1778;DHT22;886;50.082;8.222;2023-02-11T04:18:39;3.80;99.90
1778;DHT22;886;50.082;8.222;2023-02-11T04:21:06;3.70;99.90
1778;DHT22;886;50.082;8.222;2023-02-11T04:23:33;3.70;99.90
1778;DHT22;886;50.082;8.222;2023-02-11T04:26:02;3.60;99.90
1778;DHT22;886;50.082;8.222;2023-02-11T04:28:32;3.70;99.90
1778;DHT22;886;50.082;8.222;2023-02-11T04:31:00;3.60;99.90
1778;DHT22;886;50.082;8.222;2023-02-11T04:33:27;3.70;99.90
1778;DHT22;886;50.082;8.222;2023-02-11T04:35:55;3.70;99.90
1778;DHT22;886;50.082;8.222;2023-02-11T04:38:22;3.60;99.90
1778;DHT22;886;50.082;8.222;2023-02-11T04:40:51;3.40;99.90
1778;DHT22;886;50.082;8.222;2023-02-11T04:43:20;3.30;99.90
1778;DHT22;886;50.082;8.222;2023-02-11T04:45:47;3.30;99.90
1778;DHT22;886;50.082;8.222;2023-02-11T04:48:15;3.20;99.90
1778;DHT22;886;50.082;8.222;2023-02-11T04:50:45;3.00;99.90
1778;DHT22;886;50.082;8.222;2023-02-11T04:53:17;3.10;99.90
1778;DHT22;886;50.082;8.222;2023-02-11T04:55:47;3.00;99.90
1778;DHT22;886;50.082;8.222;2023-02-11T04:58:15;2.80;99.90
1778;DHT22;886;50.082;8.222;2023-02-11T05:00:44;2.90;99.90
1778;DHT22;886;50.082;8.222;2023-02-11T05:03:12;2.90;99.90
1778;DHT22;886;50.082;8.222;2023-02-11T05:05:39;2.90;99.90
1778;DHT22;886;50.082;8.222;2023-02-11T05:08:08;2.90;99.90
1778;DHT22;886;50.082;8.222;2023-02-11T05:10:35;2.90;99.90
1778;DHT22;886;50.082;8.222;2023-02-11T05:13:03;2.90;99.90
1778;DHT22;886;50.082;8.222;2023-02-11T05:15:32;2.80;99.90
1778;DHT22;886;50.082;8.222;2023-02-11T05:18:00;2.80;99.90
1778;DHT22;886;50.082;8.222;2023-02-11T05:20:28;2.80;99.90
1778;DHT22;886;50.082;8.222;2023-02-11T05:22:55;2.90;99.90
1778;DHT22;886;50.082;8.222;2023-02-11T05:25:22;2.90;99.90
1778;DHT22;886;50.082;8.222;2023-02-11T05:27:49;2.90;99.90
1778;DHT22;886;50.082;8.222;2023-02-11T05:30:17;2.90;99.90
1778;DHT22;886;50.082;8.222;2023-02-11T05:32:44;2.90;99.90
1778;DHT22;886;50.082;8.222;2023-02-11T05:35:13;2.80;99.90
1778;DHT22;886;50.082;8.222;2023-02-11T05:37:40;2.80;99.90
1778;DHT22;886;50.082;8.222;2023-02-11T05:40:08;2.80;99.90
1778;DHT22;886;50.082;8.222;2023-02-11T05:42:36;2.80;99.90
1778;DHT22;886;50.082;8.222;2023-02-11T05:45:04;2.80;99.90
1778;DHT22;886;50.082;8.222;2023-02-11T05:47:31;2.80;99.90
1778;DHT22;886;50.082;8.222;2023-02-11T05:49:58;2.80;99.90
1778;DHT22;886;50.082;8.222;2023-02-11T05:52:30;2.90;99.90
1778;DHT22;886;50.082;8.222;2023-02-11T05:54:57;2.70;99.90
1778;DHT22;886;50.082;8.222;2023-02-11T05:57:27;2.70;99.90
1778;DHT22;886;50.082;8.222;2023-02-11T06:00:00;2.70;99.90
1778;DHT22;886;50.082;8.222;2023-02-11T06:02:27;2.70;99.90
1778;DHT22;886;50.082;8.222;2023-02-11T06:04:54;2.60;99.90
1778;DHT22;886;50.082;8.222;2023-02-11T06:07:21;2.70;99.90
1778;DHT22;886;50.082;8.222;2023-02-11T06:09:50;2.70;99.90
1778;DHT22;886;50.082;8.222;2023-02-11T06:12:17;2.70;99.90
1778;DHT22;886;50.082;8.222;2023-02-11T06:14:44;2.60;99.90
1778;DHT22;886;50.082;8.222;2023-02-11T06:17:11;2.60;99.90
1778;DHT22;886;50.082;8.222;2023-02-11T06:19:41;2.60;99.90
1778;DHT22;886;50.082;8.222;2023-02-11T06:22:08;2.60;99.90
1778;DHT22;886;50.082;8.222;2023-02-11T06:24:35;2.60;99.90
1778;DHT22;886;50.082;8.222;2023-02-11T06:27:24;2.60;99.90
1778;DHT22;886;50.082;8.222;2023-02-11T06:29:51;2.60;99.90
1778;DHT22;886;50.082;8.222;2023-02-11T06:32:19;2.60;99.90
1778;DHT22;886;50.082;8.222;2023-02-11T06:35:07;2.60;99.90
1778;DHT22;886;50.082;8.222;2023-02-11T06:37:37;2.60;99.90
1778;DHT22;886;50.082;8.222;2023-02-11T06:40:05;2.50;99.90
1778;DHT22;886;50.082;8.222;2023-02-11T06:42:34;2.50;99.90
1778;DHT22;886;50.082;8.222;2023-02-11T06:45:02;2.60;99.90
1778;DHT22;886;50.082;8.222;2023-02-11T06:47:31;2.60;99.90
1778;DHT22;886;50.082;8.222;2023-02-11T06:49:58;2.70;99.90
1778;DHT22;886;50.082;8.222;2023-02-11T06:52:25;2.50;99.90
1778;DHT22;886;50.082;8.222;2023-02-11T06:54:53;2.40;99.90
1778;DHT22;886;50.082;8.222;2023-02-11T06:57:20;2.40;99.90
1778;DHT22;886;50.082;8.222;2023-02-11T06:59:48;2.40;99.90
1778;DHT22;886;50.082;8.222;2023-02-11T07:02:16;2.50;99.90
1778;DHT22;886;50.082;8.222;2023-02-11T07:04:46;2.50;99.90
1778;DHT22;886;50.082;8.222;2023-02-11T07:07:13;2.50;99.90
1778;DHT22;886;50.082;8.222;2023-02-11T07:09:41;2.40;99.90
1778;DHT22;886;50.082;8.222;2023-02-11T07:12:09;2.50;99.90
1778;DHT22;886;50.082;8.222;2023-02-11T07:14:36;2.50;99.90
1778;DHT22;886;50.082;8.222;2023-02-11T07:17:04;2.40;99.90
1778;DHT22;886;50.082;8.222;2023-02-11T07:19:31;2.50;99.90
1778;DHT22;886;50.082;8.222;2023-02-11T07:21:58;2.50;99.90
1778;DHT22;886;50.082;8.222;2023-02-11T07:24:29;2.60;99.90
1778;DHT22;886;50.082;8.222;2023-02-11T07:27:03;2.60;99.90
1778;DHT22;886;50.082;8.222;2023-02-11T07:29:30;2.70;99.90
1778;DHT22;886;50.082;8.222;2023-02-11T07:31:58;2.90;99.90
1778;DHT22;886;50.082;8.222;2023-02-11T07:34:27;2.90;99.90
1778;DHT22;886;50.082;8.222;2023-02-11T07:36:57;2.70;99.90
1778;DHT22;886;50.082;8.222;2023-02-11T07:39:24;2.80;99.90
1778;DHT22;886;50.082;8.222;2023-02-11T07:41:53;2.90;99.90
1778;DHT22;886;50.082;8.222;2023-02-11T07:44:21;2.80;99.90
1778;DHT22;886;50.082;8.222;2023-02-11T07:46:48;2.80;99.90
1778;DHT22;886;50.082;8.222;2023-02-11T07:49:15;2.90;99.90
1778;DHT22;886;50.082;8.222;2023-02-11T07:51:44;2.90;99.90
1778;DHT22;886;50.082;8.222;2023-02-11T07:54:12;2.80;99.90
1778;DHT22;886;50.082;8.222;2023-02-11T07:56:40;2.90;99.90
1778;DHT22;886;50.082;8.222;2023-02-11T07:59:07;2.80;99.90
1778;DHT22;886;50.082;8.222;2023-02-11T08:01:36;2.80;99.90
1778;DHT22;886;50.082;8.222;2023-02-11T08:04:05;3.00;99.90
1778;DHT22;886;50.082;8.222;2023-02-11T08:06:33;3.10;99.90
1778;DHT22;886;50.082;8.222;2023-02-11T08:09:05;3.30;99.90
1778;DHT22;886;50.082;8.222;2023-02-11T08:11:32;3.20;99.90
1778;DHT22;886;50.082;8.222;2023-02-11T08:14:00;3.30;99.90
1778;DHT22;886;50.082;8.222;2023-02-11T08:16:29;3.20;99.90
1778;DHT22;886;50.082;8.222;2023-02-11T08:18:59;3.10;99.90
1778;DHT22;886;50.082;8.222;2023-02-11T08:21:27;3.20;99.90
1778;DHT22;886;50.082;8.222;2023-02-11T08:23:54;3.30;99.90
1778;DHT22;886;50.082;8.222;2023-02-11T08:26:26;3.50;99.90
1778;DHT22;886;50.082;8.222;2023-02-11T08:28:56;3.60;99.90
1778;DHT22;886;50.082;8.222;2023-02-11T08:31:26;3.70;99.90
1778;DHT22;886;50.082;8.222;2023-02-11T08:33:55;3.80;99.90
1778;DHT22;886;50.082;8.222;2023-02-11T08:36:27;3.70;99.90
1778;DHT22;886;50.082;8.222;2023-02-11T08:38:57;3.70;99.90
1778;DHT22;886;50.082;8.222;2023-02-11T08:41:46;3.90;99.90
1778;DHT22;886;50.082;8.222;2023-02-11T08:44:14;4.00;99.90
1778;DHT22;886;50.082;8.222;2023-02-11T08:46:41;4.10;99.90
1778;DHT22;886;50.082;8.222;2023-02-11T08:49:11;4.20;99.90
1778;DHT22;886;50.082;8.222;2023-02-11T08:51:41;4.20;99.90
1778;DHT22;886;50.082;8.222;2023-02-11T08:54:08;4.20;99.90
1778;DHT22;886;50.082;8.222;2023-02-11T08:56:36;4.20;99.90
1778;DHT22;886;50.082;8.222;2023-02-11T08:59:06;4.30;99.90
1778;DHT22;886;50.082;8.222;2023-02-11T09:01:35;4.30;99.90
1778;DHT22;886;50.082;8.222;2023-02-11T09:04:02;4.40;99.90
1778;DHT22;886;50.082;8.222;2023-02-11T09:06:30;4.50;99.90
1778;DHT22;886;50.082;8.222;2023-02-11T09:08:57;4.40;99.90
1778;DHT22;886;50.082;8.222;2023-02-11T09:11:26;4.50;99.90
1778;DHT22;886;50.082;8.222;2023-02-11T09:13:55;4.50;99.90
1778;DHT22;886;50.082;8.222;2023-02-11T09:16:26;4.50;99.90
1778;DHT22;886;50.082;8.222;2023-02-11T09:18:55;4.60;99.90
1778;DHT22;886;50.082;8.222;2023-02-11T09:21:23;4.80;99.90
1778;DHT22;886;50.082;8.222;2023-02-11T09:23:50;5.00;99.90
1778;DHT22;886;50.082;8.222;2023-02-11T09:26:19;5.10;99.90
1778;DHT22;886;50.082;8.222;2023-02-11T09:28:48;5.20;99.90
1778;DHT22;886;50.082;8.222;2023-02-11T09:31:18;5.20;99.90
1778;DHT22;886;50.082;8.222;2023-02-11T09:33:49;5.30;99.90
1778;DHT22;886;50.082;8.222;2023-02-11T09:36:23;5.40;99.90
1778;DHT22;886;50.082;8.222;2023-02-11T09:38:52;5.40;99.90
1778;DHT22;886;50.082;8.222;2023-02-11T09:41:34;5.40;99.90
1778;DHT22;886;50.082;8.222;2023-02-11T09:44:16;5.50;99.90
1778;DHT22;886;50.082;8.222;2023-02-11T09:46:46;5.50;99.90
1778;DHT22;886;50.082;8.222;2023-02-11T09:49:22;5.60;99.90
1778;DHT22;886;50.082;8.222;2023-02-11T09:51:55;5.70;99.90
1778;DHT22;886;50.082;8.222;2023-02-11T09:54:28;5.70;99.90
1778;DHT22;886;50.082;8.222;2023-02-11T09:57:07;5.70;99.90
1778;DHT22;886;50.082;8.222;2023-02-11T09:59:52;5.80;99.90
1778;DHT22;886;50.082;8.222;2023-02-11T10:02:22;5.90;99.90
1778;DHT22;886;50.082;8.222;2023-02-11T10:05:16;5.90;99.90
1778;DHT22;886;50.082;8.222;2023-02-11T10:07:59;5.90;99.90
1778;DHT22;886;50.082;8.222;2023-02-11T10:10:46;5.90;99.90
1778;DHT22;886;50.082;8.222;2023-02-11T10:13:42;5.90;99.90
1778;DHT22;886;50.082;8.222;2023-02-11T10:16:34;5.90;99.90
1778;DHT22;886;50.082;8.222;2023-02-11T10:19:19;6.00;99.90
1778;DHT22;886;50.082;8.222;2023-02-11T10:22:07;6.00;99.90
1778;DHT22;886;50.082;8.222;2023-02-11T10:24:36;6.00;99.90
1778;DHT22;886;50.082;8.222;2023-02-11T10:27:14;6.00;99.90
1778;DHT22;886;50.082;8.222;2023-02-11T10:29:46;6.10;99.90
1778;DHT22;886;50.082;8.222;2023-02-11T10:32:30;6.10;99.90
1778;DHT22;886;50.082;8.222;2023-02-11T10:35:12;6.10;99.90
1778;DHT22;886;50.082;8.222;2023-02-11T10:37:46;6.20;99.90
1778;DHT22;886;50.082;8.222;2023-02-11T10:40:14;6.20;99.90
1778;DHT22;886;50.082;8.222;2023-02-11T10:42:48;6.20;99.90
1778;DHT22;886;50.082;8.222;2023-02-11T10:45:26;6.30;99.90
1778;DHT22;886;50.082;8.222;2023-02-11T10:47:56;6.30;99.90
1778;DHT22;886;50.082;8.222;2023-02-11T10:50:33;6.30;99.90
1778;DHT22;886;50.082;8.222;2023-02-11T10:53:19;6.30;99.90
1778;DHT22;886;50.082;8.222;2023-02-11T10:55:50;6.40;99.90
1778;DHT22;886;50.082;8.222;2023-02-11T10:58:23;6.40;99.90
1778;DHT22;886;50.082;8.222;2023-02-11T11:00:53;6.40;99.90
1778;DHT22;886;50.082;8.222;2023-02-11T11:03:23;6.50;99.90
1778;DHT22;886;50.082;8.222;2023-02-11T11:05:54;6.50;99.90
1778;DHT22;886;50.082;8.222;2023-02-11T11:08:45;6.50;99.90
1778;DHT22;886;50.082;8.222;2023-02-11T11:11:16;6.50;99.90
1778;DHT22;886;50.082;8.222;2023-02-11T11:13:54;6.60;99.90
1778;DHT22;886;50.082;8.222;2023-02-11T11:16:25;6.60;99.90
1778;DHT22;886;50.082;8.222;2023-02-11T11:19:13;6.60;99.90
1778;DHT22;886;50.082;8.222;2023-02-11T11:21:49;6.70;99.90
1778;DHT22;886;50.082;8.222;2023-02-11T11:24:31;6.70;99.90
1778;DHT22;886;50.082;8.222;2023-02-11T11:27:05;6.80;99.90
1778;DHT22;886;50.082;8.222;2023-02-11T11:29:35;6.80;99.90
1778;DHT22;886;50.082;8.222;2023-02-11T11:32:13;6.90;99.90
1778;DHT22;886;50.082;8.222;2023-02-11T11:34:49;6.90;99.90
1778;DHT22;886;50.082;8.222;2023-02-11T11:37:21;6.90;99.90
1778;DHT22;886;50.082;8.222;2023-02-11T11:39:57;7.00;99.90
1778;DHT22;886;50.082;8.222;2023-02-11T11:42:27;7.00;99.90
1778;DHT22;886;50.082;8.222;2023-02-11T11:45:03;7.00;99.90
1778;DHT22;886;50.082;8.222;2023-02-11T11:47:51;7.00;99.90
1778;DHT22;886;50.082;8.222;2023-02-11T11:50:33;7.00;99.90
1778;DHT22;886;50.082;8.222;2023-02-11T11:53:13;7.10;99.90
1778;DHT22;886;50.082;8.222;2023-02-11T11:55:52;7.10;99.90
1778;DHT22;886;50.082;8.222;2023-02-11T11:58:28;7.20;99.90
1778;DHT22;886;50.082;8.222;2023-02-11T12:01:02;7.20;99.90
1778;DHT22;886;50.082;8.222;2023-02-11T12:04:09;7.30;99.90
1778;DHT22;886;50.082;8.222;2023-02-11T12:06:53;7.40;99.90
1778;DHT22;886;50.082;8.222;2023-02-11T12:09:32;7.40;99.90
1778;DHT22;886;50.082;8.222;2023-02-11T12:14:42;7.50;99.90
1778;DHT22;886;50.082;8.222;2023-02-11T12:17:25;7.50;99.90
1778;DHT22;886;50.082;8.222;2023-02-11T12:20:11;7.50;99.90
1778;DHT22;886;50.082;8.222;2023-02-11T12:22:56;7.50;99.90
1778;DHT22;886;50.082;8.222;2023-02-11T12:25:33;7.50;99.90
1778;DHT22;886;50.082;8.222;2023-02-11T12:28:18;7.50;99.90
1778;DHT22;886;50.082;8.222;2023-02-11T12:31:13;7.60;99.90
1778;DHT22;886;50.082;8.222;2023-02-11T12:34:13;7.60;99.90
1778;DHT22;886;50.082;8.222;2023-02-11T12:37:03;7.60;99.90
1778;DHT22;886;50.082;8.222;2023-02-11T12:39:42;7.60;99.90
1778;DHT22;886;50.082;8.222;2023-02-11T12:42:31;7.70;99.90
1778;DHT22;886;50.082;8.222;2023-02-11T12:45:43;7.70;99.90
1778;DHT22;886;50.082;8.222;2023-02-11T12:48:29;7.70;99.90
1778;DHT22;886;50.082;8.222;2023-02-11T12:51:10;7.80;99.90
1778;DHT22;886;50.082;8.222;2023-02-11T12:54:00;7.80;99.90
1778;DHT22;886;50.082;8.222;2023-02-11T12:56:39;7.80;99.90
1778;DHT22;886;50.082;8.222;2023-02-11T12:59:14;7.80;99.90
1778;DHT22;886;50.082;8.222;2023-02-11T13:01:46;7.90;99.90
1778;DHT22;886;50.082;8.222;2023-02-11T13:04:20;7.90;99.90
1778;DHT22;886;50.082;8.222;2023-02-11T13:06:54;7.90;99.90
1778;DHT22;886;50.082;8.222;2023-02-11T13:09:26;7.80;99.90
1778;DHT22;886;50.082;8.222;2023-02-11T13:11:58;7.90;99.90
1778;DHT22;886;50.082;8.222;2023-02-11T13:14:50;7.90;99.90
1778;DHT22;886;50.082;8.222;2023-02-11T13:17:25;7.90;99.90
1778;DHT22;886;50.082;8.222;2023-02-11T13:19:59;7.90;99.90
1778;DHT22;886;50.082;8.222;2023-02-11T13:22:32;7.90;99.90
1778;DHT22;886;50.082;8.222;2023-02-11T13:25:04;7.90;99.90
1778;DHT22;886;50.082;8.222;2023-02-11T13:27:40;7.90;99.90
1778;DHT22;886;50.082;8.222;2023-02-11T13:30:24;7.90;99.90
1778;DHT22;886;50.082;8.222;2023-02-11T13:33:16;7.90;99.90
1778;DHT22;886;50.082;8.222;2023-02-11T13:35:49;7.90;99.90
1778;DHT22;886;50.082;8.222;2023-02-11T13:38:55;8.00;99.90
1778;DHT22;886;50.082;8.222;2023-02-11T13:41:28;8.00;99.90
1778;DHT22;886;50.082;8.222;2023-02-11T13:44:02;8.00;99.90
1778;DHT22;886;50.082;8.222;2023-02-11T13:46:49;8.00;99.90
1778;DHT22;886;50.082;8.222;2023-02-11T13:49:22;8.00;99.90
1778;DHT22;886;50.082;8.222;2023-02-11T13:51:52;8.00;99.90
1778;DHT22;886;50.082;8.222;2023-02-11T13:54:24;8.00;99.90
1778;DHT22;886;50.082;8.222;2023-02-11T13:57:29;8.00;99.90
1778;DHT22;886;50.082;8.222;2023-02-11T14:03:37;8.00;99.90
1778;DHT22;886;50.082;8.222;2023-02-11T14:06:26;8.10;99.90
1778;DHT22;886;50.082;8.222;2023-02-11T14:09:33;8.00;99.90
1778;DHT22;886;50.082;8.222;2023-02-11T14:12:22;8.10;99.90
1778;DHT22;886;50.082;8.222;2023-02-11T14:17:45;8.00;99.90
1778;DHT22;886;50.082;8.222;2023-02-11T14:20:42;8.10;99.90
1778;DHT22;886;50.082;8.222;2023-02-11T14:23:24;8.10;99.90
1778;DHT22;886;50.082;8.222;2023-02-11T14:26:06;8.10;99.90
1778;DHT22;886;50.082;8.222;2023-02-11T14:28:47;8.20;99.90
1778;DHT22;886;50.082;8.222;2023-02-11T14:31:20;8.20;99.90
1778;DHT22;886;50.082;8.222;2023-02-11T14:37:07;8.20;99.90
1778;DHT22;886;50.082;8.222;2023-02-11T14:40:12;8.20;99.90
1778;DHT22;886;50.082;8.222;2023-02-11T14:42:45;8.20;99.90
1778;DHT22;886;50.082;8.222;2023-02-11T14:45:19;8.20;99.90
1778;DHT22;886;50.082;8.222;2023-02-11T14:47:50;8.20;99.90
1778;DHT22;886;50.082;8.222;2023-02-11T14:50:24;8.20;99.90
1778;DHT22;886;50.082;8.222;2023-02-11T14:52:53;8.20;99.90
1778;DHT22;886;50.082;8.222;2023-02-11T14:55:28;8.20;99.90
1778;DHT22;886;50.082;8.222;2023-02-11T14:58:13;8.20;99.90
1778;DHT22;886;50.082;8.222;2023-02-11T15:00:54;8.30;99.90
1778;DHT22;886;50.082;8.222;2023-02-11T15:03:32;8.20;99.90
1778;DHT22;886;50.082;8.222;2023-02-11T15:06:03;8.20;99.90
1778;DHT22;886;50.082;8.222;2023-02-11T15:08:35;8.20;99.90
1778;DHT22;886;50.082;8.222;2023-02-11T15:11:09;8.30;99.90
1778;DHT22;886;50.082;8.222;2023-02-11T15:13:38;8.20;99.90
1778;DHT22;886;50.082;8.222;2023-02-11T15:16:15;8.20;99.90
1778;DHT22;886;50.082;8.222;2023-02-11T15:18:47;8.20;99.90
1778;DHT22;886;50.082;8.222;2023-02-11T15:21:20;8.20;99.90
1778;DHT22;886;50.082;8.222;2023-02-11T15:23:57;8.20;99.90
1778;DHT22;886;50.082;8.222;2023-02-11T15:26:26;8.30;99.90
1778;DHT22;886;50.082;8.222;2023-02-11T15:28:54;8.20;99.90
1778;DHT22;886;50.082;8.222;2023-02-11T15:31:23;8.20;99.90
1778;DHT22;886;50.082;8.222;2023-02-11T15:33:52;8.20;99.90
1778;DHT22;886;50.082;8.222;2023-02-11T15:36:22;8.30;99.90
1778;DHT22;886;50.082;8.222;2023-02-11T15:39:17;8.30;99.90
1778;DHT22;886;50.082;8.222;2023-02-11T15:41:45;8.30;99.90
1778;DHT22;886;50.082;8.222;2023-02-11T15:44:31;8.30;99.90
1778;DHT22;886;50.082;8.222;2023-02-11T15:46:58;8.30;99.90
1778;DHT22;886;50.082;8.222;2023-02-11T15:49:26;8.30;99.90
1778;DHT22;886;50.082;8.222;2023-02-11T15:51:55;8.30;99.90
1778;DHT22;886;50.082;8.222;2023-02-11T15:54:25;8.30;99.90
1778;DHT22;886;50.082;8.222;2023-02-11T15:56:58;8.20;99.90
1778;DHT22;886;50.082;8.222;2023-02-11T15:59:32;8.20;99.90
1778;DHT22;886;50.082;8.222;2023-02-11T16:02:08;8.20;99.90
1778;DHT22;886;50.082;8.222;2023-02-11T16:04:48;8.20;99.90
1778;DHT22;886;50.082;8.222;2023-02-11T16:07:42;8.20;99.90
1778;DHT22;886;50.082;8.222;2023-02-11T16:10:22;8.20;99.90
1778;DHT22;886;50.082;8.222;2023-02-11T16:12:52;8.30;99.90
1778;DHT22;886;50.082;8.222;2023-02-11T16:15:45;8.20;99.90
1778;DHT22;886;50.082;8.222;2023-02-11T16:18:25;8.30;99.90
1778;DHT22;886;50.082;8.222;2023-02-11T16:21:05;8.20;99.90
1778;DHT22;886;50.082;8.222;2023-02-11T16:23:40;8.20;99.90
1778;DHT22;886;50.082;8.222;2023-02-11T16:26:18;8.20;99.90
1778;DHT22;886;50.082;8.222;2023-02-11T16:28:48;8.20;99.90
1778;DHT22;886;50.082;8.222;2023-02-11T16:31:17;8.20;99.90
1778;DHT22;886;50.082;8.222;2023-02-11T16:33:45;8.20;99.90
1778;DHT22;886;50.082;8.222;2023-02-11T16:36:14;8.10;99.90
1778;DHT22;886;50.082;8.222;2023-02-11T16:38:42;8.10;99.90
1778;DHT22;886;50.082;8.222;2023-02-11T16:41:09;8.20;99.90
1778;DHT22;886;50.082;8.222;2023-02-11T16:43:38;8.20;99.90
1778;DHT22;886;50.082;8.222;2023-02-11T16:46:05;8.20;99.90
1778;DHT22;886;50.082;8.222;2023-02-11T16:48:36;8.10;99.90
1778;DHT22;886;50.082;8.222;2023-02-11T16:51:04;8.10;99.90
1778;DHT22;886;50.082;8.222;2023-02-11T16:53:33;8.10;99.90
1778;DHT22;886;50.082;8.222;2023-02-11T16:56:00;8.10;99.90
1778;DHT22;886;50.082;8.222;2023-02-11T16:58:27;8.00;99.90
1778;DHT22;886;50.082;8.222;2023-02-11T17:00:55;8.00;99.90
1778;DHT22;886;50.082;8.222;2023-02-11T17:03:24;8.10;99.90
1778;DHT22;886;50.082;8.222;2023-02-11T17:05:57;8.10;99.90
1778;DHT22;886;50.082;8.222;2023-02-11T17:08:24;8.20;99.90
1778;DHT22;886;50.082;8.222;2023-02-11T17:10:51;8.10;99.90
1778;DHT22;886;50.082;8.222;2023-02-11T17:13:18;8.00;99.90
1778;DHT22;886;50.082;8.222;2023-02-11T17:15:45;8.00;99.90
1778;DHT22;886;50.082;8.222;2023-02-11T17:18:13;7.90;99.90
1778;DHT22;886;50.082;8.222;2023-02-11T17:20:40;7.80;99.90
1778;DHT22;886;50.082;8.222;2023-02-11T17:23:08;7.90;99.90
1778;DHT22;886;50.082;8.222;2023-02-11T17:25:36;7.90;99.90
1778;DHT22;886;50.082;8.222;2023-02-11T17:28:03;7.80;99.90
1778;DHT22;886;50.082;8.222;2023-02-11T17:30:31;7.80;99.90
1778;DHT22;886;50.082;8.222;2023-02-11T17:32:58;7.80;99.90
1778;DHT22;886;50.082;8.222;2023-02-11T17:35:25;7.90;99.90
1778;DHT22;886;50.082;8.222;2023-02-11T17:37:52;7.90;99.90
1778;DHT22;886;50.082;8.222;2023-02-11T17:40:21;7.80;99.90
1778;DHT22;886;50.082;8.222;2023-02-11T17:42:48;7.70;99.90